createdAt,value
2022-12-17T00:02:22.842Z,16.00
2022-12-17T00:07:44.297Z,15.33
2022-12-17T00:13:07.750Z,15.87
2022-12-17T00:18:27.939Z,15.20
2022-12-17T00:23:48.212Z,17.67
2022-12-17T00:29:09.115Z,17.03
2022-12-17T00:34:32.134Z,14.70
2022-12-17T00:39:57.619Z,14.73
2022-12-17T00:45:21.698Z,15.73
2022-12-17T00:50:42.056Z,14.17
2022-12-17T00:56:01.894Z,15.73
2022-12-17T01:01:22.716Z,16.17
2022-12-17T01:06:42.735Z,15.90
2022-12-17T01:12:03.285Z,16.13
2022-12-17T01:17:23.182Z,16.03
2022-12-17T01:22:43.486Z,16.20
2022-12-17T01:28:06.692Z,16.17
2022-12-17T01:33:28.436Z,15.10
2022-12-17T01:39:02.320Z,16.37
2022-12-17T01:45:00.500Z,16.10
2022-12-17T01:50:20.843Z,16.37
2022-12-17T01:55:41.400Z,16.43
2022-12-17T02:01:01.611Z,15.33
2022-12-17T02:06:37.325Z,15.87
2022-12-17T02:12:04.059Z,15.40
2022-12-17T02:17:26.240Z,15.97
2022-12-17T02:23:00.075Z,15.30
2022-12-17T02:28:22.032Z,15.10
2022-12-17T02:33:43.180Z,15.47
2022-12-17T02:39:04.419Z,13.97
2022-12-17T02:44:26.634Z,15.33
2022-12-17T02:49:47.537Z,15.43
2022-12-17T02:55:08.338Z,14.13
2022-12-17T03:00:29.329Z,16.97
2022-12-17T03:05:49.742Z,14.73
2022-12-17T03:11:11.654Z,15.03
2022-12-17T03:16:37.677Z,15.03
2022-12-17T03:21:58.474Z,15.00
2022-12-17T03:27:18.540Z,15.63
2022-12-17T03:32:38.804Z,15.17
2022-12-17T03:37:58.954Z,17.10
2022-12-17T03:43:25.176Z,15.23
2022-12-17T03:48:46.162Z,15.43
2022-12-17T03:54:06.828Z,14.60
2022-12-17T03:59:27.114Z,15.37
2022-12-17T04:04:47.151Z,13.83
2022-12-17T04:10:07.374Z,15.23
2022-12-17T04:15:27.742Z,14.70
2022-12-17T04:20:47.819Z,15.10
2022-12-17T04:26:08.078Z,14.60
2022-12-17T04:31:28.418Z,14.20
2022-12-17T04:36:48.593Z,14.60
2022-12-17T04:42:08.962Z,14.47
2022-12-17T04:47:29.149Z,15.23
2022-12-17T04:52:50.571Z,14.17
2022-12-17T04:58:10.650Z,14.87
2022-12-17T05:03:33.692Z,13.57
2022-12-17T05:08:54.392Z,14.93
2022-12-17T05:14:14.546Z,14.20
2022-12-17T05:19:34.714Z,14.53
2022-12-17T05:24:55.171Z,13.57
2022-12-17T05:30:15.397Z,14.07
2022-12-17T05:35:35.314Z,14.57
2022-12-17T05:40:55.297Z,12.77
2022-12-17T05:46:15.620Z,13.63
2022-12-17T05:51:38.886Z,14.10
2022-12-17T05:56:59.532Z,12.90
2022-12-17T06:02:19.796Z,12.77
2022-12-17T06:07:40.088Z,13.90
2022-12-17T06:13:00.348Z,13.67
2022-12-17T06:18:22.353Z,13.63
2022-12-17T06:23:43.807Z,14.67
2022-12-17T06:29:04.088Z,14.27
2022-12-17T06:34:24.255Z,13.57
2022-12-17T06:39:44.541Z,13.77
2022-12-17T06:45:04.846Z,14.93
2022-12-17T06:50:25.684Z,14.00
2022-12-17T06:55:59.493Z,13.37
2022-12-17T07:01:19.920Z,13.03
2022-12-17T07:06:40.182Z,12.37
2022-12-17T07:12:00.362Z,11.90
2022-12-17T07:17:20.522Z,11.17
2022-12-17T07:22:40.621Z,8.67
2022-12-17T07:28:00.700Z,9.47
2022-12-17T07:33:25.797Z,8.67
2022-12-17T07:38:45.968Z,8.67
2022-12-17T07:44:06.236Z,8.47
2022-12-17T07:49:26.570Z,8.77
2022-12-17T07:54:47.344Z,9.50
2022-12-17T08:00:07.252Z,8.33
2022-12-17T08:05:27.653Z,9.17
2022-12-17T08:10:47.922Z,8.83
2022-12-17T08:16:08.715Z,7.90
2022-12-17T08:21:28.643Z,8.07
2022-12-17T08:26:48.857Z,8.03
2022-12-17T08:32:09.105Z,8.80
2022-12-17T08:37:29.337Z,10.93
2022-12-17T08:42:49.607Z,9.40
2022-12-17T08:48:09.922Z,9.77
2022-12-17T08:53:34.689Z,9.00
2022-12-17T08:58:59.081Z,8.40
2022-12-17T09:04:19.698Z,9.30
2022-12-17T09:09:39.656Z,10.00
2022-12-17T09:15:00.075Z,8.60
2022-12-17T09:20:23.696Z,8.87
2022-12-17T09:25:46.828Z,10.47
2022-12-17T09:31:07.403Z,10.07
2022-12-17T09:36:28.070Z,10.43
2022-12-17T09:41:58.829Z,11.30
2022-12-17T09:47:46.127Z,11.63
2022-12-17T09:53:06.415Z,10.80
2022-12-17T09:58:39.037Z,11.03
2022-12-17T10:04:02.094Z,9.50
2022-12-17T10:09:31.399Z,10.27
2022-12-17T10:14:52.226Z,9.90
2022-12-17T10:20:13.071Z,11.10
2022-12-17T10:25:41.163Z,9.87
2022-12-17T10:31:02.127Z,9.40
2022-12-17T10:36:24.680Z,10.33
2022-12-17T10:41:47.432Z,10.60
2022-12-17T10:47:14.759Z,9.30
2022-12-17T10:52:45.631Z,8.93
2022-12-17T10:58:07.413Z,9.37
2022-12-17T11:04:03.341Z,10.20
2022-12-17T11:09:23.480Z,9.93
2022-12-17T11:14:45.388Z,9.73
2022-12-17T11:20:15.599Z,10.37
2022-12-17T11:25:48.755Z,11.00
2022-12-17T11:31:15.241Z,11.60
2022-12-17T11:36:45.189Z,10.90
2022-12-17T11:42:18.489Z,11.67
2022-12-17T11:47:38.907Z,10.80
2022-12-17T11:53:20.559Z,10.93
2022-12-17T11:59:20.944Z,11.00
2022-12-17T12:05:02.696Z,11.70
2022-12-17T12:10:30.944Z,10.67
2022-12-17T12:16:28.456Z,11.53
2022-12-17T12:21:57.136Z,11.27
2022-12-17T12:27:42.246Z,11.50
2022-12-17T12:33:40.437Z,9.87
2022-12-17T12:39:02.640Z,10.40
2022-12-17T12:44:31.890Z,11.07
2022-12-17T12:50:33.396Z,10.77
2022-12-17T12:56:01.224Z,11.47
2022-12-17T13:01:21.615Z,9.57
2022-12-17T13:06:44.296Z,9.80
2022-12-17T13:11:47.408Z,10.07
2022-12-17T13:16:55.881Z,10.37
2022-12-17T13:22:09.856Z,10.93
2022-12-17T13:27:31.994Z,10.30
2022-12-17T13:32:45.152Z,10.83
2022-12-17T13:37:55.783Z,10.20
2022-12-17T13:42:57.800Z,10.47
2022-12-17T13:47:59.540Z,10.67
2022-12-17T13:53:12.803Z,11.13
2022-12-17T13:58:31.002Z,10.53
2022-12-17T14:03:57.089Z,10.90
2022-12-17T14:08:56.672Z,10.70
2022-12-17T14:13:58.613Z,11.80
2022-12-17T14:19:00.323Z,10.80
2022-12-17T14:24:02.013Z,10.53
2022-12-17T14:29:13.186Z,9.70
2022-12-17T14:34:15.834Z,11.47
2022-12-17T14:39:19.477Z,10.43
2022-12-17T14:44:27.398Z,9.93
2022-12-17T14:49:29.033Z,9.67
2022-12-17T14:54:30.793Z,10.37
2022-12-17T14:59:35.122Z,9.97
2022-12-17T15:04:37.770Z,9.73
2022-12-17T15:09:40.613Z,9.90
2022-12-17T15:14:42.181Z,9.73
2022-12-17T15:19:43.857Z,9.77
2022-12-17T15:24:45.785Z,9.97
2022-12-17T15:29:47.321Z,11.20
2022-12-17T15:34:50.517Z,10.67
2022-12-17T15:39:52.286Z,10.40
2022-12-17T15:44:53.919Z,10.20
2022-12-17T15:49:55.589Z,10.00
2022-12-17T15:54:57.779Z,9.90
2022-12-17T15:59:59.552Z,10.37
2022-12-17T16:05:01.329Z,10.20
2022-12-17T16:10:05.436Z,10.30
2022-12-17T16:15:08.724Z,10.03
2022-12-17T16:20:10.887Z,10.40
2022-12-17T16:25:12.822Z,10.17
2022-12-17T16:30:14.508Z,11.00
2022-12-17T16:35:17.144Z,11.13
2022-12-17T16:40:18.657Z,11.13
2022-12-17T16:45:20.420Z,11.00
2022-12-17T16:50:22.962Z,10.67
2022-12-17T16:55:24.690Z,10.57
2022-12-17T17:00:27.173Z,11.77
2022-12-17T17:05:33.033Z,11.73
2022-12-17T17:10:36.799Z,11.57
2022-12-17T17:15:38.476Z,12.33
2022-12-17T17:20:40.068Z,12.27
2022-12-17T17:25:57.421Z,12.17
2022-12-17T17:31:01.630Z,11.77
2022-12-17T17:36:27.067Z,11.30
2022-12-17T17:41:30.183Z,11.50
2022-12-17T17:46:32.588Z,9.80
2022-12-17T17:52:08.016Z,10.77
2022-12-17T17:56:58.631Z,10.90
2022-12-17T18:02:01.000Z,11.43
2022-12-17T18:07:24.201Z,11.40
2022-12-17T18:12:43.043Z,12.17
2022-12-17T18:17:46.088Z,12.07
2022-12-17T18:22:48.262Z,12.13
2022-12-17T18:27:53.494Z,12.30
2022-12-17T18:32:55.390Z,11.83
2022-12-17T18:37:57.053Z,12.07
2022-12-17T18:43:17.247Z,12.40
2022-12-17T18:48:19.921Z,12.07
2022-12-17T18:53:21.530Z,11.97
2022-12-17T18:58:23.099Z,13.50
2022-12-17T19:03:24.921Z,13.03
2022-12-17T19:08:26.589Z,13.07
2022-12-17T19:13:28.107Z,13.20
2022-12-17T19:18:30.443Z,11.77
2022-12-17T19:23:33.708Z,12.83
2022-12-17T19:28:36.249Z,12.50
2022-12-17T19:33:38.597Z,14.37
2022-12-17T19:38:41.747Z,12.37
2022-12-17T19:43:45.049Z,10.20
2022-12-17T19:48:50.835Z,12.00
2022-12-17T19:53:53.890Z,11.43
2022-12-17T19:58:57.946Z,12.57
2022-12-17T20:04:00.182Z,10.97
2022-12-17T20:09:04.551Z,11.03
2022-12-17T20:14:21.439Z,11.27
2022-12-17T20:19:27.878Z,11.97
2022-12-17T20:24:31.820Z,11.53
2022-12-17T20:29:34.423Z,12.07
2022-12-17T20:34:36.063Z,11.87
2022-12-17T20:39:37.752Z,13.20
2022-12-17T20:44:40.415Z,12.63
2022-12-17T20:49:42.040Z,12.57
2022-12-17T20:54:43.677Z,12.43
2022-12-17T20:59:45.254Z,10.80
2022-12-17T21:04:46.830Z,12.10
2022-12-17T21:09:48.466Z,11.10
2022-12-17T21:14:50.065Z,11.03
2022-12-17T21:19:51.678Z,11.23
2022-12-17T21:24:53.258Z,10.83
2022-12-17T21:29:55.007Z,11.17
2022-12-17T21:34:56.527Z,11.10
2022-12-17T21:40:00.078Z,11.43
2022-12-17T21:45:01.891Z,11.30
2022-12-17T21:50:03.877Z,11.80
2022-12-17T21:55:05.752Z,11.67
2022-12-17T22:00:08.219Z,10.90
2022-12-17T22:05:12.598Z,11.13
2022-12-17T22:10:38.838Z,10.27
2022-12-17T22:15:48.135Z,11.30
2022-12-17T22:20:59.935Z,13.87
2022-12-17T22:26:01.613Z,13.10
2022-12-17T22:31:25.663Z,11.17
2022-12-17T22:37:51.266Z,10.73
2022-12-17T22:44:38.393Z,11.43
2022-12-17T22:47:30.827Z,10.60
2022-12-17T22:52:32.505Z,10.93
2022-12-17T22:57:37.537Z,10.97
2022-12-17T23:02:39.942Z,10.27
2022-12-17T23:07:41.660Z,10.80
2022-12-17T23:12:53.904Z,10.27
2022-12-17T23:17:57.770Z,12.57
2022-12-17T23:23:00.029Z,13.10
2022-12-17T23:28:01.800Z,12.80
2022-12-17T23:33:03.929Z,14.23
2022-12-17T23:38:05.642Z,12.97
2022-12-17T23:43:07.300Z,11.53
2022-12-17T23:48:09.259Z,12.77
2022-12-17T23:53:10.897Z,12.23
2022-12-17T23:58:12.576Z,10.90
